aviador You're here:

KGFL Decoded Metar

GLENS FALLS in NY, USA
Report Time2018-02-22 14:53:00
UTC Time2018-02-22 14:57:38
Flight Rules vfr VFR
Wind040° at 06 kt
W.Decomp.*RWY 01: 4.3 kt HW 4.2 kt RCW
RWY 12: 2.4 kt HW 5.5 kt LCW
W.Rank040° ranks 18
Current wind is below 040° avg. (6.5)
Visibility9999 m
Phenomena:N/A
Clouds:Overcast 080 Hf
Expected CloudBase > 3,600 ft AGL from Temp-Dew spread
Ceiling8,000 ft
Temp00°C (ISA -14)
Dew Point-9°C (51% RH)
AAT-5.1°C
QNH1040 hPa
Density Alt-2,280 ft
Elevation338 ft
Report Wrong Elevation
Raw Report
METAR KGFL 221453Z AUTO 04006KT 10SM OVC080 00/M09 A3071 RMK AO2
SLP406 T00001094 51022=

Extra information for KGFL:More info

Metar Taf Metar & Taf Last 4 Metars F.Rules Stats Wind Profile Meteogram Temp Stats Airport Information Weather charts Add Link Nearby VenuesMetar ALERT Operation Metar Decoded Social comments

AIRNAV info for KGFL